Hayesville, North Carolina
Current Conditions -  °F | °C
As of 3:16 PM on Friday 31 Oct 2014 (Local Time) from KRHP Reporting Station
Overcast Overcast  
Wind Chill: 54°   Ceiling: 5000
Heat Index: 54°   Visibility: 10mi
Dew Point: 37°   Wind: 5mph
Humidity: 54%   Direction: 230°SW
Pressure: 29.85"   Gusts: NA
Location:  35.05°N, 83.82°W
Report Text: KRHP 311916Z AUTO 23004KT 10SM OVC050 12/03 A2985 RMK AO2
Loading
Personal Weather Stations






























Interactive Weather Map
Tropical Storm Tracking
New forecast layout! Learn more

10-Day Weather Forecast

Advertisements
Track Severe Weather on mobile